createdAt,value
2019-05-11T00:00:25.307Z,990.9
2019-05-11T00:03:15.664Z,990.8
2019-05-11T00:06:15.526Z,990.8
2019-05-11T00:09:15.770Z,990.8
2019-05-11T00:12:15.045Z,990.8
2019-05-11T00:15:16.299Z,990.6
2019-05-11T00:18:15.858Z,990.6
2019-05-11T00:21:15.553Z,990.6
2019-05-11T00:24:14.910Z,990.5
2019-05-11T00:27:15.213Z,990.4
2019-05-11T00:30:15.294Z,990.2
2019-05-11T00:33:15.379Z,990.2
2019-05-11T00:36:15.342Z,990.3
2019-05-11T00:39:15.771Z,990.2
2019-05-11T00:42:15.645Z,990.2
2019-05-11T00:45:15.732Z,990.2
2019-05-11T00:48:15.847Z,990.3
2019-05-11T00:51:15.828Z,990.3
2019-05-11T00:54:15.827Z,990.3
2019-05-11T00:57:15.670Z,990.2
2019-05-11T01:00:15.585Z,990.0
2019-05-11T01:03:15.628Z,989.9
2019-05-11T01:06:15.600Z,989.8
2019-05-11T01:09:15.807Z,989.7
2019-05-11T01:12:15.817Z,989.8
2019-05-11T01:15:15.620Z,989.8
2019-05-11T01:18:15.845Z,989.8
2019-05-11T01:21:15.657Z,989.6
2019-05-11T01:24:15.688Z,989.6
2019-05-11T01:27:15.709Z,989.7
2019-05-11T01:30:15.500Z,989.7
2019-05-11T01:33:15.777Z,989.7
2019-05-11T01:36:15.650Z,989.7
2019-05-11T01:39:15.870Z,989.6
2019-05-11T01:42:15.626Z,989.6
2019-05-11T01:45:15.593Z,989.5
2019-05-11T01:48:15.705Z,989.6
2019-05-11T01:51:15.456Z,989.6
2019-05-11T01:54:15.808Z,989.6
2019-05-11T01:57:15.642Z,989.5
2019-05-11T02:00:15.080Z,989.5
2019-05-11T02:03:15.249Z,989.4
2019-05-11T02:06:15.589Z,989.4
2019-05-11T02:09:14.935Z,989.4
2019-05-11T02:12:15.445Z,989.2
2019-05-11T02:15:15.592Z,989.0
2019-05-11T02:18:15.807Z,989.0
2019-05-11T02:21:15.831Z,989.0
2019-05-11T02:24:15.696Z,989.0
2019-05-11T02:27:15.694Z,989.0
2019-05-11T02:30:15.773Z,989.0
2019-05-11T02:33:15.744Z,989.0
2019-05-11T02:36:14.851Z,988.9
2019-05-11T02:39:15.459Z,988.7
2019-05-11T02:42:15.342Z,988.7
2019-05-11T02:45:15.472Z,988.7
2019-05-11T02:48:15.576Z,988.7
2019-05-11T02:51:15.849Z,988.5
2019-05-11T02:54:15.607Z,988.4
2019-05-11T02:57:15.640Z,988.4
2019-05-11T03:00:15.884Z,988.3
2019-05-11T03:03:15.096Z,988.1
2019-05-11T03:06:15.581Z,988.2
2019-05-11T03:09:15.942Z,988.2
2019-05-11T03:12:15.046Z,988.1
2019-05-11T03:15:15.598Z,988.1
2019-05-11T03:18:15.162Z,988.0
2019-05-11T03:21:15.924Z,988.0
2019-05-11T03:24:14.929Z,987.9
2019-05-11T03:27:15.564Z,987.9
2019-05-11T03:30:15.137Z,987.8
2019-05-11T03:33:15.738Z,987.8
2019-05-11T03:36:14.999Z,987.8
2019-05-11T03:39:15.515Z,987.9
2019-05-11T03:42:15.786Z,987.9
2019-05-11T03:45:15.020Z,987.9
2019-05-11T03:48:15.746Z,987.8
2019-05-11T03:51:15.474Z,987.7
2019-05-11T03:54:15.773Z,987.7
2019-05-11T03:57:15.819Z,987.7
2019-05-11T04:00:15.041Z,987.8
2019-05-11T04:03:15.733Z,987.7
2019-05-11T04:06:15.059Z,987.7
2019-05-11T04:09:15.775Z,987.7
2019-05-11T04:12:33.469Z,987.7
2019-05-11T04:15:15.604Z,987.6
2019-05-11T04:18:15.030Z,987.6
2019-05-11T04:21:15.786Z,987.7
2019-05-11T04:24:15.027Z,987.7
2019-05-11T04:27:19.350Z,987.7
2019-05-11T04:30:15.401Z,987.8
2019-05-11T04:33:14.989Z,987.8
2019-05-11T04:36:15.853Z,987.8
2019-05-11T04:39:15.827Z,987.8
2019-05-11T04:42:15.837Z,987.7
2019-05-11T04:45:15.857Z,987.6
2019-05-11T04:48:15.116Z,987.5
2019-05-11T04:51:15.690Z,987.5
2019-05-11T04:54:14.911Z,987.7
2019-05-11T04:57:15.880Z,987.7
2019-05-11T05:00:15.939Z,987.7
2019-05-11T05:03:15.469Z,987.8
2019-05-11T05:06:22.258Z,987.8
2019-05-11T05:09:15.571Z,987.8
2019-05-11T05:12:15.690Z,987.6
2019-05-11T05:15:15.320Z,987.3
2019-05-11T05:18:14.979Z,987.5
2019-05-11T05:21:15.684Z,987.6
2019-05-11T05:24:15.089Z,987.7
2019-05-11T05:27:15.850Z,987.8
2019-05-11T05:30:14.941Z,987.7
2019-05-11T05:33:15.864Z,987.7
2019-05-11T05:36:15.324Z,987.5
2019-05-11T05:39:15.860Z,987.6
2019-05-11T05:42:15.662Z,987.6
2019-05-11T05:45:15.049Z,987.7
2019-05-11T05:48:15.884Z,987.7
2019-05-11T05:51:15.185Z,987.7
2019-05-11T05:54:15.143Z,987.7
2019-05-11T05:57:16.030Z,987.7
2019-05-11T06:00:14.987Z,987.6
2019-05-11T06:03:15.773Z,987.7
2019-05-11T06:06:14.973Z,987.7
2019-05-11T06:09:16.001Z,987.7
2019-05-11T06:12:15.213Z,987.7
2019-05-11T06:15:15.794Z,987.6
2019-05-11T06:18:15.647Z,987.6
2019-05-11T06:21:15.018Z,987.5
2019-05-11T06:24:15.922Z,987.5
2019-05-11T06:27:15.082Z,987.5
2019-05-11T06:30:14.892Z,987.5
2019-05-11T06:33:15.090Z,987.6
2019-05-11T06:36:15.682Z,987.6
2019-05-11T06:39:15.106Z,987.7
2019-05-11T06:42:15.939Z,987.7
2019-05-11T06:45:15.079Z,987.6
2019-05-11T06:48:14.946Z,987.6
2019-05-11T06:51:15.884Z,987.5
2019-05-11T06:54:15.266Z,987.5
2019-05-11T06:57:14.947Z,987.3
2019-05-11T07:00:15.753Z,987.6
2019-05-11T07:03:15.317Z,987.6
2019-05-11T07:06:15.178Z,987.6
2019-05-11T07:09:15.440Z,987.7
2019-05-11T07:12:15.216Z,987.7
2019-05-11T07:15:15.083Z,987.7
2019-05-11T07:18:15.883Z,987.7
2019-05-11T07:21:15.812Z,987.9
2019-05-11T07:24:15.096Z,987.8
2019-05-11T07:27:14.815Z,987.9
2019-05-11T07:30:15.725Z,987.9
2019-05-11T07:33:15.409Z,987.9
2019-05-11T07:36:14.973Z,987.9
2019-05-11T07:39:15.752Z,987.8
2019-05-11T07:42:17.873Z,987.8
2019-05-11T07:45:17.899Z,987.9
2019-05-11T07:48:15.691Z,987.9
2019-05-11T07:51:14.990Z,987.9
2019-05-11T07:54:15.804Z,987.9
2019-05-11T07:57:15.330Z,987.8
2019-05-11T08:00:15.538Z,987.8
2019-05-11T08:03:17.958Z,987.8
2019-05-11T08:06:18.037Z,987.8
2019-05-11T08:09:15.024Z,987.8
2019-05-11T08:12:15.795Z,987.8
2019-05-11T08:15:18.136Z,988.0
2019-05-11T08:18:15.388Z,988.1
2019-05-11T08:21:17.867Z,988.1
2019-05-11T08:24:17.944Z,988.0
2019-05-11T08:27:15.577Z,988.0
2019-05-11T08:30:15.089Z,988.0
2019-05-11T08:33:17.367Z,988.2
2019-05-11T08:36:15.018Z,988.1
2019-05-11T08:39:18.146Z,988.0
2019-05-11T08:42:15.056Z,988.1
2019-05-11T08:45:21.239Z,988.3
2019-05-11T08:48:14.973Z,988.3
2019-05-11T08:51:15.842Z,988.4
2019-05-11T08:54:14.961Z,988.4
2019-05-11T08:57:17.848Z,988.4
2019-05-11T09:00:17.810Z,988.4
2019-05-11T09:03:17.888Z,988.4
2019-05-11T09:06:17.903Z,988.5
2019-05-11T09:09:17.917Z,988.5
2019-05-11T09:12:18.172Z,988.5
2019-05-11T09:15:29.955Z,988.6
2019-05-11T09:18:15.827Z,988.7
2019-05-11T09:21:15.061Z,988.8
2019-05-11T09:24:15.182Z,988.8
2019-05-11T09:27:14.950Z,988.9
2019-05-11T09:30:15.756Z,989.0
2019-05-11T09:33:17.825Z,989.0
2019-05-11T09:36:17.975Z,989.0
2019-05-11T09:39:14.973Z,989.1
2019-05-11T09:42:17.788Z,989.1
2019-05-11T09:45:15.622Z,989.2
2019-05-11T09:48:15.313Z,989.3
2019-05-11T09:51:18.179Z,989.4
2019-05-11T09:54:18.229Z,989.4
2019-05-11T09:57:15.196Z,989.5
2019-05-11T10:00:17.884Z,989.5
2019-05-11T10:03:15.115Z,989.6
2019-05-11T10:06:15.704Z,989.6
2019-05-11T10:09:14.984Z,989.6
2019-05-11T10:12:18.050Z,989.7
2019-05-11T10:15:15.854Z,989.7
2019-05-11T10:18:15.374Z,989.7
2019-05-11T10:21:15.124Z,989.7
2019-05-11T10:24:17.792Z,989.8
2019-05-11T10:27:15.498Z,989.9
2019-05-11T10:30:14.955Z,990.0
2019-05-11T10:33:15.711Z,990.0
2019-05-11T10:36:15.993Z,990.0
2019-05-11T10:39:15.841Z,990.0
2019-05-11T10:42:15.285Z,990.0
2019-05-11T10:45:17.845Z,990.0
2019-05-11T10:48:17.717Z,990.0
2019-05-11T10:51:15.248Z,990.0
2019-05-11T10:54:15.716Z,990.1
2019-05-11T10:57:15.219Z,990.1
2019-05-11T11:00:17.813Z,990.0
2019-05-11T11:03:17.891Z,990.1
2019-05-11T11:06:15.738Z,990.2
2019-05-11T11:09:15.038Z,990.2
2019-05-11T11:12:15.093Z,990.3
2019-05-11T11:15:18.209Z,990.4
2019-05-11T11:18:15.170Z,990.4
2019-05-11T11:21:21.769Z,990.6
2019-05-11T11:24:18.039Z,990.6
2019-05-11T11:27:15.041Z,990.7
2019-05-11T11:30:17.968Z,990.8
2019-05-11T11:33:15.722Z,990.8
2019-05-11T11:36:15.148Z,990.9
2019-05-11T11:39:15.860Z,990.9
2019-05-11T11:42:15.121Z,991.0
2019-05-11T11:45:15.280Z,991.0
2019-05-11T11:48:15.061Z,991.1
2019-05-11T11:51:15.831Z,991.2
2019-05-11T11:54:17.950Z,991.2
2019-05-11T11:57:15.206Z,991.4
2019-05-11T12:00:18.104Z,991.4
2019-05-11T12:03:18.380Z,991.5
2019-05-11T12:06:15.218Z,991.5
2019-05-11T12:09:15.092Z,991.7
2019-05-11T12:12:15.247Z,991.7
2019-05-11T12:15:14.894Z,991.7
2019-05-11T12:18:14.992Z,991.6
2019-05-11T12:21:18.290Z,991.6
2019-05-11T12:24:15.143Z,991.7
2019-05-11T12:27:14.887Z,991.8
2019-05-11T12:30:14.865Z,991.9
2019-05-11T12:33:15.582Z,991.9
2019-05-11T12:36:15.130Z,991.9
2019-05-11T12:39:15.864Z,992.0
2019-05-11T12:42:17.830Z,992.1
2019-05-11T12:45:15.239Z,992.1
2019-05-11T12:48:15.187Z,992.3
2019-05-11T12:51:15.063Z,992.3
2019-05-11T12:54:15.019Z,992.4
2019-05-11T12:57:15.298Z,992.5
2019-05-11T13:00:15.041Z,992.5
2019-05-11T13:03:15.083Z,992.6
2019-05-11T13:06:15.800Z,992.7
2019-05-11T13:09:15.381Z,992.7
2019-05-11T13:12:15.511Z,992.8
2019-05-11T13:15:15.037Z,992.9
2019-05-11T13:18:14.908Z,993.0
2019-05-11T13:21:18.079Z,993.0
2019-05-11T13:24:14.894Z,993.0
2019-05-11T13:27:17.959Z,993.1
2019-05-11T13:30:15.676Z,993.2
2019-05-11T13:33:15.358Z,993.3
2019-05-11T13:36:15.048Z,993.2
2019-05-11T13:39:17.922Z,993.4
2019-05-11T13:42:15.688Z,993.4
2019-05-11T13:45:15.059Z,993.4
2019-05-11T13:48:17.517Z,993.5
2019-05-11T13:51:15.462Z,993.6
2019-05-11T13:54:15.000Z,993.6
2019-05-11T13:57:15.369Z,993.6
2019-05-11T14:00:14.987Z,993.6
2019-05-11T14:03:14.932Z,993.7
2019-05-11T14:06:17.760Z,993.8
2019-05-11T14:09:15.413Z,993.9
2019-05-11T14:12:18.042Z,994.0
2019-05-11T14:15:15.793Z,994.1
2019-05-11T14:18:17.638Z,994.2
2019-05-11T14:21:15.691Z,994.2
2019-05-11T14:24:15.264Z,994.3
2019-05-11T14:27:14.891Z,994.3
2019-05-11T14:30:15.246Z,994.4
2019-05-11T14:33:17.870Z,994.5
2019-05-11T14:36:15.156Z,994.5
2019-05-11T14:39:14.962Z,994.6
2019-05-11T14:42:15.061Z,994.6
2019-05-11T14:45:14.985Z,994.8
2019-05-11T14:48:25.876Z,994.9
2019-05-11T14:51:18.101Z,994.9
2019-05-11T14:54:15.221Z,995.0
2019-05-11T14:57:15.745Z,995.1
2019-05-11T15:00:15.569Z,995.1
2019-05-11T15:03:15.175Z,995.2
2019-05-11T15:06:15.686Z,995.2
2019-05-11T15:09:15.258Z,995.3
2019-05-11T15:12:17.971Z,995.3
2019-05-11T15:15:15.895Z,995.3
2019-05-11T15:18:17.595Z,995.5
2019-05-11T15:21:15.766Z,995.5
2019-05-11T15:24:18.326Z,995.5
2019-05-11T15:27:15.258Z,995.6
2019-05-11T15:33:15.717Z,995.7
2019-05-11T15:36:15.545Z,995.7
2019-05-11T15:39:15.039Z,995.8
2019-05-11T15:42:17.554Z,995.9
2019-05-11T15:45:18.432Z,996.0
2019-05-11T15:48:15.376Z,996.1
2019-05-11T15:51:15.444Z,996.2
2019-05-11T15:54:15.550Z,996.2
2019-05-11T15:57:17.806Z,996.3
2019-05-11T16:00:15.660Z,996.3
2019-05-11T16:03:15.627Z,996.4
2019-05-11T16:06:18.328Z,996.4
2019-05-11T16:09:15.488Z,996.5
2019-05-11T16:12:15.172Z,996.6
2019-05-11T16:15:15.735Z,996.6
2019-05-11T16:18:15.826Z,996.7
2019-05-11T16:21:15.276Z,996.7
2019-05-11T16:24:15.113Z,996.8
2019-05-11T16:27:15.046Z,996.8
2019-05-11T16:30:20.869Z,996.8
2019-05-11T16:33:15.191Z,996.8
2019-05-11T16:36:17.855Z,996.8
2019-05-11T16:39:15.762Z,996.8
2019-05-11T16:42:15.462Z,996.9
2019-05-11T16:45:15.222Z,997.0
2019-05-11T16:48:15.226Z,997.0
2019-05-11T16:51:15.182Z,997.1
2019-05-11T16:54:15.295Z,997.0
2019-05-11T16:57:17.688Z,997.0
2019-05-11T17:00:15.641Z,997.1
2019-05-11T17:03:15.382Z,997.2
2019-05-11T17:06:15.114Z,997.3
2019-05-11T17:09:17.859Z,997.5
2019-05-11T17:12:17.930Z,997.5
2019-05-11T17:15:18.202Z,997.6
2019-05-11T17:18:15.378Z,997.7
2019-05-11T17:21:14.954Z,997.8
2019-05-11T17:24:15.311Z,998.0
2019-05-11T17:27:15.555Z,998.2
2019-05-11T17:30:15.600Z,998.2
2019-05-11T17:33:17.438Z,998.3
2019-05-11T17:36:15.508Z,998.4
2019-05-11T17:39:15.904Z,998.5
2019-05-11T17:42:15.345Z,998.5
2019-05-11T17:45:15.169Z,998.6
2019-05-11T17:48:17.630Z,998.6
2019-05-11T17:51:21.253Z,998.7
2019-05-11T17:54:17.802Z,998.7
2019-05-11T17:57:15.714Z,998.9
2019-05-11T18:00:15.443Z,999.0
2019-05-11T18:03:15.697Z,999.0
2019-05-11T18:06:15.179Z,999.2
2019-05-11T18:09:15.197Z,999.1
2019-05-11T18:12:17.210Z,999.1
2019-05-11T18:15:15.487Z,999.1
2019-05-11T18:18:15.226Z,999.2
2019-05-11T18:21:15.335Z,999.3
2019-05-11T18:24:15.065Z,999.4
2019-05-11T18:27:15.176Z,999.5
2019-05-11T18:30:15.160Z,999.6
2019-05-11T18:33:15.328Z,999.8
2019-05-11T18:36:15.149Z,999.8
2019-05-11T18:39:15.227Z,999.9
2019-05-11T18:42:15.305Z,1000.0
2019-05-11T18:45:15.304Z,1000.0
2019-05-11T18:48:15.730Z,1000.1
2019-05-11T18:51:15.035Z,1000.1
2019-05-11T18:54:15.115Z,1000.2
2019-05-11T18:57:15.297Z,1000.3
2019-05-11T19:00:15.241Z,1000.4
2019-05-11T19:03:15.860Z,1000.5
2019-05-11T19:06:15.393Z,1000.6
2019-05-11T19:09:17.844Z,1000.8
2019-05-11T19:12:18.493Z,1000.9
2019-05-11T19:15:15.531Z,1000.9
2019-05-11T19:18:14.859Z,1001.0
2019-05-11T19:21:17.841Z,1001.1
2019-05-11T19:24:15.563Z,1001.2
2019-05-11T19:27:15.193Z,1001.2
2019-05-11T19:30:17.969Z,1001.3
2019-05-11T19:33:15.825Z,1001.3
2019-05-11T19:36:15.243Z,1001.3
2019-05-11T19:39:15.475Z,1001.3
2019-05-11T19:42:17.869Z,1001.4
2019-05-11T19:45:15.390Z,1001.5
2019-05-11T19:48:15.838Z,1001.5
2019-05-11T19:51:15.427Z,1001.6
2019-05-11T19:54:15.322Z,1001.6
2019-05-11T19:57:18.006Z,1001.7
2019-05-11T20:00:15.479Z,1001.8
2019-05-11T20:03:18.049Z,1001.8
2019-05-11T20:06:15.791Z,1001.8
2019-05-11T20:09:15.376Z,1001.9
2019-05-11T20:12:17.849Z,1001.9
2019-05-11T20:15:15.805Z,1001.9
2019-05-11T20:18:15.416Z,1002.0
2019-05-11T20:21:19.570Z,1002.0
2019-05-11T20:24:15.497Z,1002.0
2019-05-11T20:27:14.999Z,1002.1
2019-05-11T20:30:18.065Z,1002.1
2019-05-11T20:33:15.582Z,1002.2
2019-05-11T20:36:17.700Z,1002.1
2019-05-11T20:39:15.125Z,1002.2
2019-05-11T20:42:17.958Z,1002.1
2019-05-11T20:45:15.059Z,1002.2
2019-05-11T20:48:15.260Z,1002.1
2019-05-11T20:51:15.147Z,1002.2
2019-05-11T20:54:17.544Z,1002.2
2019-05-11T20:57:15.245Z,1002.2
2019-05-11T21:00:15.366Z,1002.3
2019-05-11T21:03:15.523Z,1002.2
2019-05-11T21:06:15.497Z,1002.3
2019-05-11T21:09:15.545Z,1002.3
2019-05-11T21:12:18.514Z,1002.4
2019-05-11T21:15:23.751Z,1002.4
2019-05-11T21:18:15.422Z,1002.4
2019-05-11T21:21:15.554Z,1002.5
2019-05-11T21:24:15.944Z,1002.4
2019-05-11T21:27:15.496Z,1002.5
2019-05-11T21:30:15.211Z,1002.6
2019-05-11T21:33:15.075Z,1002.7
2019-05-11T21:36:17.909Z,1002.7
2019-05-11T21:39:15.049Z,1002.7
2019-05-11T21:42:18.025Z,1002.8
2019-05-11T21:45:17.840Z,1002.8
2019-05-11T21:48:16.209Z,1002.9
2019-05-11T21:51:21.023Z,1002.9
2019-05-11T21:54:15.388Z,1003.0
2019-05-11T21:57:18.197Z,1002.9
2019-05-11T22:00:15.870Z,1003.0
2019-05-11T22:03:22.224Z,1002.9
2019-05-11T22:06:31.165Z,1003.0
2019-05-11T22:09:15.090Z,1003.1
2019-05-11T22:12:15.767Z,1003.1
2019-05-11T22:15:17.203Z,1003.2
2019-05-11T22:18:28.250Z,1003.2
2019-05-11T22:21:16.017Z,1003.2
2019-05-11T22:24:18.498Z,1003.2
2019-05-11T22:27:18.376Z,1003.2
2019-05-11T22:30:15.480Z,1003.3
2019-05-11T22:33:17.602Z,1003.4
2019-05-11T22:36:16.468Z,1003.4
2019-05-11T22:39:18.581Z,1003.5
2019-05-11T22:42:18.395Z,1003.5
2019-05-11T22:45:15.880Z,1003.6
2019-05-11T22:48:15.115Z,1003.6
2019-05-11T22:51:15.415Z,1003.6
2019-05-11T22:54:15.130Z,1003.6
2019-05-11T22:57:15.670Z,1003.6
2019-05-11T23:00:15.576Z,1003.7
2019-05-11T23:03:15.384Z,1003.7
2019-05-11T23:06:15.444Z,1003.8
2019-05-11T23:09:18.271Z,1003.9
2019-05-11T23:12:15.328Z,1003.9
2019-05-11T23:15:15.990Z,1003.9
2019-05-11T23:18:17.978Z,1003.9
2019-05-11T23:21:15.787Z,1003.9
2019-05-11T23:24:18.004Z,1003.9
2019-05-11T23:27:15.494Z,1004.0
2019-05-11T23:30:15.471Z,1004.0
2019-05-11T23:33:15.762Z,1004.1
2019-05-11T23:36:18.136Z,1004.1
2019-05-11T23:39:17.717Z,1004.2
2019-05-11T23:42:15.818Z,1004.2
2019-05-11T23:45:15.734Z,1004.2
2019-05-11T23:48:17.136Z,1004.3
2019-05-11T23:51:17.971Z,1004.3
2019-05-11T23:54:15.110Z,1004.3
2019-05-11T23:57:15.376Z,1004.3
